Pagrindinis puslapis
METAR-TAF:

METAR-TAF

Oro uostai :

Shageluk, Aliaska, Jungtinės Amerikos Valstijos

platuma: 62-41-32N, ilguma: 159-34-09W, Aukštis: 24 m

Dabartinis oras

Ataskaita buvo paskelbta 1 valandą ir 13 minutes, ne 23:56 UTC
Vėjas 9 kt iš Pietvakarių
Temperatūra 13°C
Drėgmė 72%
Slėgis 1017 hPa
Matomumas: 16.1 km
Mažai debesys ne aukštis 1800 ft
Su prošvaistėmis ne aukštis 7000 ft

METAR: PAHX 042356Z AUTO 23009KT 10SM FEW018 BKN070 13/08 A3002 RMK AO2 SLP166 T01280083 10139 20117 58002 PWINO $

Laikas: 17:09 (01:09 UTC)


TAF: trūkstamas

Orai ataskaitas ir orų prognozės (METAR, TAF).

turimą stotys yra geltonos ir raudonos taškus žemėlapyje.

Perkelti pele per norėdami pamatyti stoties vardą.

Tada spustelėkite, norėdami matyti oro stebėjimo ir prognozės.

Norėdami pakeisti žemėlapį: spustelėkite ant žalios mygtukų su juodo kryžiaus žemyn,; žalią mygtuką su brūkšneliu, jei norite nutolinti; arba žalių rodyklių gretimoms žemėlapius.


METAR-TAF: